Time;durP1;ratioP1;P1;durP2;ratioP2;P2;SDS_P1;SDS_P2;PMS_P1;PMS_P2;Temp;Humidity;BMP_temperature;BMP_pressure;BME280_temperature;BME280_humidity;BME280_pressure;Samples;Min_cycle;Max_cycle;Signal;HPM_P1;HPM_P2
2022/07/02 00:00:39;;;;;;;0.30;0.30;;;;;;;9.76;100.00;100717.97;5008512;28;20026;-78
2022/07/02 00:03:05;;;;;;;0.30;0.30;;;;;;;9.70;100.00;100718.69;4981737;28;20041;-76
2022/07/02 00:05:34;;;;;;;0.30;0.30;;;;;;;9.60;100.00;100713.47;4991357;28;20088;-77
2022/07/02 00:08:01;;;;;;;2.47;0.52;;;;;;;9.54;100.00;100708.81;4997255;28;20044;-78
2022/07/02 00:10:27;;;;;;;0.30;0.30;;;;;;;9.50;100.00;100704.81;5008511;28;20715;-77
2022/07/02 00:12:53;;;;;;;0.30;0.30;;;;;;;9.57;100.00;100713.81;5000134;28;20037;-77
2022/07/02 00:15:19;;;;;;;0.30;0.30;;;;;;;9.60;100.00;100713.47;4974613;28;20037;-77
2022/07/02 00:17:45;;;;;;;0.30;0.30;;;;;;;9.46;100.00;100692.72;5023378;28;20475;-77
2022/07/02 00:20:11;;;;;;;0.30;0.30;;;;;;;9.53;100.00;100701.78;5013044;28;20083;-78
2022/07/02 00:22:40;;;;;;;0.30;0.30;;;;;;;9.51;100.00;100711.84;5013334;28;20041;-78
2022/07/02 00:25:06;;;;;;;0.30;0.30;;;;;;;9.44;100.00;100706.28;5004954;28;20069;-77
2022/07/02 00:27:32;;;;;;;0.30;0.30;;;;;;;9.38;100.00;100706.16;5008722;28;20495;-77
2022/07/02 00:30:00;;;;;;;0.30;0.30;;;;;;;9.37;100.00;100704.47;4997841;28;20044;-76
2022/07/02 00:32:33;;;;;;;0.30;0.30;;;;;;;9.46;100.00;100712.34;5014073;28;20025;-78
2022/07/02 00:34:59;;;;;;;;;;;;;;;9.47;100.00;100718.53;5013532;28;20041;-78
2022/07/02 00:37:28;;;;;;;0.40;0.40;;;;;;;9.43;100.00;100707.31;5003349;28;20270;-77
2022/07/02 00:39:54;;;;;;;0.30;0.30;;;;;;;9.52;100.00;100713.50;5015457;28;20395;-77
2022/07/02 00:42:21;;;;;;;0.30;0.30;;;;;;;9.59;100.00;100714.50;5045415;28;20376;-77
2022/07/02 00:44:47;;;;;;;0.30;0.30;;;;;;;9.62;100.00;100711.47;4982834;28;20438;-77
2022/07/02 00:47:13;;;;;;;0.30;0.30;;;;;;;9.66;100.00;100711.97;4993106;28;20048;-76
2022/07/02 00:49:46;;;;;;;0.30;0.30;;;;;;;9.71;100.00;100719.50;5046049;28;20029;-76
2022/07/02 00:52:29;;;;;;;0.30;0.30;;;;;;;9.62;100.00;100716.00;5005969;28;21567;-77
2022/07/02 00:54:55;;;;;;;0.35;0.35;;;;;;;9.56;100.00;100717.53;5013007;28;20443;-78
2022/07/02 00:57:21;;;;;;;0.30;0.30;;;;;;;9.56;100.00;100716.69;5019990;28;20038;-77
2022/07/02 00:59:46;;;;;;;0.40;0.40;;;;;;;9.48;100.00;100706.81;5031623;28;20037;-77
2022/07/02 01:02:14;;;;;;;0.30;0.30;;;;;;;9.61;100.00;100709.81;5000313;28;20036;-78
2022/07/02 01:04:40;;;;;;;0.30;0.30;;;;;;;9.72;100.00;100722.03;5001751;28;20406;-77
2022/07/02 01:07:08;;;;;;;0.30;0.30;;;;;;;9.75;100.00;100716.31;5009793;28;20028;-78
2022/07/02 01:12:28;;;;;;;0.30;0.30;;;;;;;9.78;100.00;100715.13;5015626;28;21623;-80
2022/07/02 01:14:58;;;;;;;6.13;0.70;;;;;;;9.90;100.00;100730.72;5008005;28;20109;-80
2022/07/02 01:17:24;;;;;;;0.73;0.73;;;;;;;9.89;100.00;100728.19;5007279;28;20504;-77
2022/07/02 01:19:49;;;;;;;0.40;0.40;;;;;;;9.93;100.00;100742.13;5007753;28;20478;-77
2022/07/02 01:22:31;;;;;;;0.30;0.30;;;;;;;9.96;100.00;100742.63;5011573;28;20034;-80
2022/07/02 01:24:57;;;;;;;0.30;0.30;;;;;;;9.96;100.00;100742.63;5018682;28;20084;-79
2022/07/02 01:27:23;;;;;;;0.30;0.30;;;;;;;10.02;100.00;100744.59;4996627;28;20029;-78
2022/07/02 01:29:50;;;;;;;0.30;0.30;;;;;;;10.01;100.00;100742.94;5011359;28;20030;-79
2022/07/02 01:32:16;;;;;;;0.30;0.30;;;;;;;10.04;100.00;100747.97;5009579;28;20091;-77
2022/07/02 01:34:48;;;;;;;0.30;0.30;;;;;;;10.07;100.00;100752.97;5020329;28;20061;-77
2022/07/02 01:37:15;;;;;;;0.30;0.30;;;;;;;9.93;100.00;100724.16;5009773;28;20064;-78
2022/07/02 01:39:45;;;;;;;0.30;0.30;;;;;;;10.04;100.00;100747.97;4987222;28;20056;-78
2022/07/02 01:42:12;;;;;;;0.30;0.30;;;;;;;10.04;100.00;100753.34;5012833;28;20121;-78
2022/07/02 01:44:39;;;;;;;0.30;0.30;;;;;;;10.04;100.00;100755.19;5007864;28;20561;-78
2022/07/02 01:47:08;;;;;;;0.30;0.30;;;;;;;10.00;100.00;100760.06;4996537;28;20121;-78
2022/07/02 01:49:34;;;;;;;0.30;0.30;;;;;;;9.98;100.00;100747.84;4995517;28;20046;-78
2022/07/02 01:52:00;;;;;;;0.30;0.30;;;;;;;9.99;100.00;100755.69;5034016;28;20042;-79
2022/07/02 01:54:26;;;;;;;0.45;0.45;;;;;;;9.94;100.00;100752.69;4997810;28;20068;-77
2022/07/02 01:56:51;;;;;;;0.30;0.30;;;;;;;9.88;100.00;100737.28;5005036;28;20100;-78
2022/07/02 01:59:18;;;;;;;0.30;0.30;;;;;;;9.94;100.00;100757.22;5016955;28;20029;-76
2022/07/02 02:01:44;;;;;;;0.30;0.30;;;;;;;9.91;100.00;100753.03;5028987;28;20138;-76
2022/07/02 02:04:10;;;;;;;0.30;0.30;;;;;;;9.86;100.00;100750.84;4998914;28;20116;-77
2022/07/02 02:06:39;;;;;;;0.30;0.30;;;;;;;9.83;100.00;100747.69;5001976;28;20033;-76
2022/07/02 02:09:05;;;;;;;0.30;0.30;;;;;;;9.83;100.00;100747.69;5011839;28;20034;-77
2022/07/02 02:11:33;;;;;;;0.30;0.30;;;;;;;9.82;100.00;100743.34;5000018;28;20026;-76
2022/07/02 02:13:59;;;;;;;0.30;0.30;;;;;;;9.81;100.00;100744.31;5015531;28;20061;-78
2022/07/02 02:16:30;;;;;;;0.30;0.30;;;;;;;9.79;100.00;100739.13;4981140;28;20060;-78
2022/07/02 02:18:57;;;;;;;0.30;0.30;;;;;;;9.74;100.00;100729.91;5002771;28;21726;-77
2022/07/02 02:21:24;;;;;;;0.30;0.30;;;;;;;9.83;100.00;100745.00;5011096;28;20129;-78
2022/07/02 02:23:56;;;;;;;0.30;0.30;;;;;;;9.84;100.00;100746.66;5015049;28;20108;-78
2022/07/02 02:26:22;;;;;;;0.30;0.30;;;;;;;9.89;100.00;100749.69;4996840;28;20088;-77
2022/07/02 02:28:48;;;;;;;0.30;0.30;;;;;;;9.87;100.00;100749.00;5014974;28;20041;-76
2022/07/02 02:31:13;;;;;;;0.30;0.30;;;;;;;9.85;100.00;100743.81;5010299;28;20463;-77
2022/07/02 02:33:39;;;;;;;0.30;0.30;;;;;;;9.85;100.00;100741.13;5010672;28;20052;-77
2022/07/02 02:36:06;;;;;;;0.30;0.30;;;;;;;9.83;100.00;100740.47;5006201;28;20044;-78
2022/07/02 02:38:31;;;;;;;0.30;0.30;;;;;;;9.63;100.00;100715.84;5013338;28;20037;-76
2022/07/02 02:40:57;;;;;;;0.30;0.30;;;;;;;9.83;100.00;100745.00;5014461;28;20046;-76
2022/07/02 02:43:22;;;;;;;0.30;0.30;;;;;;;9.78;100.00;100737.44;4997293;28;20091;-77
2022/07/02 02:45:48;;;;;;;0.30;0.30;;;;;;;9.73;100.00;100725.53;5009589;28;20037;-78
2022/07/02 02:48:15;;;;;;;0.38;0.38;;;;;;;9.78;100.00;100731.25;5035590;28;20379;-77
2022/07/02 02:50:41;;;;;;;0.30;0.30;;;;;;;9.73;100.00;100730.91;5000505;28;20110;-77
2022/07/02 02:53:06;;;;;;;0.30;0.30;;;;;;;9.64;100.00;100720.19;5007552;28;20463;-77
2022/07/02 02:55:32;;;;;;;0.30;0.30;;;;;;;9.67;100.00;100735.13;5019416;28;20075;-76
2022/07/02 02:57:57;;;;;;;0.30;0.30;;;;;;;9.64;100.00;100738.16;4980339;28;20103;-77
2022/07/02 03:00:23;;;;;;;0.30;0.30;;;;;;;9.59;100.00;100744.03;5005383;28;20080;-77
2022/07/02 03:02:49;;;;;;;0.30;0.30;;;;;;;9.55;100.00;100733.78;5003484;28;20120;-77
2022/07/02 03:05:14;;;;;;;0.30;0.30;;;;;;;9.51;100.00;100737.84;5023122;28;20041;-77
2022/07/02 03:07:40;;;;;;;0.30;0.30;;;;;;;9.51;100.00;100744.03;5008894;28;20617;-77
2022/07/02 03:10:06;;;;;;;0.30;0.30;;;;;;;9.60;100.00;100744.88;4992106;28;20038;-77
2022/07/02 03:12:32;;;;;;;0.30;0.30;;;;;;;9.67;100.00;100748.56;4992487;28;20479;-76
2022/07/02 03:15:05;;;;;;;0.30;0.30;;;;;;;9.71;100.00;100751.72;5023352;28;20135;-77
2022/07/02 03:17:30;;;;;;;0.30;0.30;;;;;;;9.67;100.00;100753.91;5015268;28;20033;-76
2022/07/02 03:19:56;;;;;;;0.30;0.30;;;;;;;9.65;100.00;100748.72;5005845;28;20046;-77
2022/07/02 03:22:21;;;;;;;0.30;0.30;;;;;;;9.60;100.00;100750.22;5017008;28;20124;-77
2022/07/02 03:24:47;;;;;;;0.30;0.30;;;;;;;9.54;100.00;100740.19;5011152;28;20037;-76
2022/07/02 03:27:18;;;;;;;0.40;0.40;;;;;;;9.49;100.00;100740.69;4991233;28;20656;-77
2022/07/02 03:29:44;;;;;;;0.40;0.40;;;;;;;9.45;100.00;100750.94;5019702;28;20378;-76
2022/07/02 03:32:09;;;;;;;0.40;0.40;;;;;;;9.40;100.00;100755.97;5005706;28;20033;-76
2022/07/02 03:34:35;;;;;;;0.30;0.30;;;;;;;9.37;100.00;100752.78;4994511;28;20136;-76
2022/07/02 03:37:00;;;;;;;0.30;0.30;;;;;;;9.36;100.00;100754.59;5049186;28;20038;-76
2022/07/02 03:39:26;;;;;;;0.30;0.30;;;;;;;9.32;100.00;100750.59;5004397;28;20049;-78
2022/07/02 03:41:52;;;;;;;0.30;0.30;;;;;;;9.33;100.00;100760.31;5007509;28;20082;-76
2022/07/02 03:44:17;;;;;;;0.30;0.30;;;;;;;9.29;100.00;100764.34;4989086;28;20045;-76
2022/07/02 03:46:43;;;;;;;0.30;0.30;;;;;;;9.21;100.00;100762.50;5043775;28;20372;-77
2022/07/02 03:49:08;;;;;;;0.30;0.30;;;;;;;9.07;100.00;100756.94;5009339;28;20037;-77
2022/07/02 03:51:34;;;;;;;0.30;0.30;;;;;;;9.05;100.00;100758.94;4987383;28;20038;-76
2022/07/02 03:54:00;;;;;;;0.38;0.38;;;;;;;9.12;100.00;100760.81;5001928;28;20044;-76
2022/07/02 03:56:25;;;;;;;0.30;0.30;;;;;;;9.23;100.00;100765.00;5049315;28;20038;-77
2022/07/02 03:58:51;;;;;;;0.30;0.30;;;;;;;9.29;100.00;100764.34;5000432;28;20520;-77
2022/07/02 04:01:17;;;;;;;0.30;0.30;;;;;;;9.32;100.00;100765.88;5014176;28;20026;-76
2022/07/02 04:03:43;;;;;;;0.30;0.30;;;;;;;9.31;100.00;100769.53;4981996;28;20045;-76
2022/07/02 04:06:08;;;;;;;0.30;0.30;;;;;;;9.25;100.00;100768.38;5010075;28;20185;-76
2022/07/02 04:08:34;;;;;;;0.30;0.30;;;;;;;9.20;100.00;100768.84;4979946;28;20045;-81
2022/07/02 04:11:00;;;;;;;0.30;0.30;;;;;;;9.09;100.00;100752.25;5023120;28;20351;-77
2022/07/02 04:13:25;;;;;;;0.30;0.30;;;;;;;9.20;100.00;100768.03;5010914;28;20496;-79
2022/07/02 04:15:51;;;;;;;0.30;0.30;;;;;;;9.22;100.00;100768.69;4992567;28;20092;-77
2022/07/02 04:18:18;;;;;;;0.30;0.30;;;;;;;9.22;100.00;100766.84;5011695;28;20086;-76
2022/07/02 04:20:44;;;;;;;0.30;0.30;;;;;;;9.22;100.00;100768.69;4995079;28;20037;-77
2022/07/02 04:23:10;;;;;;;0.30;0.30;;;;;;;9.25;100.00;100768.38;4993577;28;20028;-77
2022/07/02 04:25:37;;;;;;;0.30;0.30;;;;;;;9.24;100.00;100759.47;5009224;28;20038;-77
2022/07/02 04:28:03;;;;;;;0.30;0.30;;;;;;;9.29;100.00;100768.84;5021825;28;20037;-77
2022/07/02 04:30:29;;;;;;;0.40;0.40;;;;;;;9.30;100.00;100763.34;4991401;28;20108;-76
2022/07/02 04:32:55;;;;;;;0.40;0.40;;;;;;;9.40;100.00;100768.53;5015794;28;20033;-78
2022/07/02 04:35:20;;;;;;;0.30;0.30;;;;;;;9.49;100.00;100764.84;4990912;28;20056;-78
2022/07/02 04:37:46;;;;;;;0.30;0.30;;;;;;;9.60;100.00;100764.47;5008770;28;20495;-80
2022/07/02 04:40:12;;;;;;;0.30;0.30;;;;;;;9.73;100.00;100758.59;5016905;28;20033;-77
2022/07/02 04:42:38;;;;;;;0.30;0.30;;;;;;;9.84;100.00;100758.28;5017279;28;20108;-77
2022/07/02 04:45:04;;;;;;;0.40;0.40;;;;;;;9.86;100.00;100750.03;5014722;28;20105;-76
2022/07/02 04:47:30;;;;;;;0.40;0.40;;;;;;;10.01;100.00;100764.44;5002974;28;20434;-78
2022/07/02 04:49:56;;;;;;;0.35;0.35;;;;;;;10.00;100.00;100752.03;5017020;28;20069;-77
2022/07/02 04:52:21;;;;;;;0.32;0.32;;;;;;;10.09;100.00;100768.94;4991115;28;20038;-79
2022/07/02 04:54:47;;;;;;;0.40;0.40;;;;;;;10.11;100.00;100772.31;5000299;28;20255;-77
2022/07/02 04:57:12;;;;;;;0.30;0.30;;;;;;;10.07;100.00;100770.97;5019920;28;20030;-76
2022/07/02 04:59:38;;;;;;;0.40;0.40;;;;;;;10.08;100.00;100765.44;5005565;28;20544;-76
2022/07/02 05:02:04;;;;;;;0.30;0.30;;;;;;;10.07;100.00;100765.59;5025856;28;20475;-78
2022/07/02 05:04:30;;;;;;;0.30;0.30;;;;;;;10.09;100.00;100772.47;5005793;28;20033;-77
2022/07/02 05:06:55;;;;;;;0.40;0.40;;;;;;;10.07;100.00;100768.28;4984428;28;20147;-78
2022/07/02 05:09:23;;;;;;;0.35;0.35;;;;;;;9.98;100.00;100763.94;5013838;28;20040;-77
2022/07/02 05:11:49;;;;;;;0.35;0.35;;;;;;;9.99;100.00;100771.81;5016789;28;20168;-78
2022/07/02 05:14:16;;;;;;;0.40;0.40;;;;;;;10.73;100.00;100776.94;5005174;28;20191;-77
2022/07/02 05:16:42;;;;;;;0.40;0.40;;;;;;;11.36;100.00;100778.53;5008442;28;20491;-77
2022/07/02 05:19:08;;;;;;;0.35;0.35;;;;;;;11.58;100.00;100774.13;5027557;28;20038;-78
2022/07/02 05:21:33;;;;;;;0.40;0.40;;;;;;;11.00;100.00;100754.91;5002753;28;20030;-77
2022/07/02 05:23:59;;;;;;;0.40;0.40;;;;;;;10.87;100.00;100778.88;5008691;28;20073;-77
2022/07/02 05:26:25;;;;;;;0.40;0.40;;;;;;;10.85;100.00;100772.84;4991775;28;20445;-78
2022/07/02 05:28:50;;;;;;;0.30;0.30;;;;;;;10.59;100.00;100766.94;4989735;28;20464;-78
2022/07/02 05:31:16;;;;;;;0.30;0.30;;;;;;;10.31;100.00;100781.66;5029854;28;20458;-78
2022/07/02 05:33:42;;;;;;;0.30;0.30;;;;;;;10.08;100.00;100781.53;4996275;28;20048;-76
2022/07/02 05:36:09;;;;;;;0.30;0.30;;;;;;;9.93;100.00;100785.94;4995096;28;20059;-78
2022/07/02 05:38:38;;;;;;;0.40;0.40;;;;;;;9.87;100.00;100779.41;4984392;28;20029;-77
2022/07/02 05:41:04;;;;;;;0.40;0.40;;;;;;;10.93;100.00;100786.25;5046661;28;20041;-77
2022/07/02 05:43:29;;;;;;;0.40;0.40;;;;;;;11.83;100.00;100782.00;4997425;28;20029;-77
2022/07/02 05:45:55;;;;;;;0.50;0.50;;;;;;;12.80;100.00;100794.53;5011672;28;20498;-76
2022/07/02 05:48:21;;;;;;;0.50;0.50;;;;;;;13.68;100.00;100788.00;5011964;28;20037;-78
2022/07/02 05:50:46;;;;;;;0.50;0.50;;;;;;;14.45;100.00;100778.94;5040934;28;20044;-80
2022/07/02 05:53:13;;;;;;;0.40;0.40;;;;;;;15.09;98.77;100779.59;4990732;28;20434;-77
2022/07/02 05:55:39;;;;;;;0.40;0.40;;;;;;;15.33;95.87;100764.63;5019775;28;20327;-76
2022/07/02 05:58:04;;;;;;;0.40;0.40;;;;;;;15.35;94.50;100784.22;5009824;28;20529;-77
2022/07/02 06:00:30;;;;;;;0.40;0.40;;;;;;;14.99;96.03;100781.84;5017409;28;20120;-77
2022/07/02 06:02:56;;;;;;;0.40;0.40;;;;;;;15.30;95.12;100792.97;4992905;28;20038;-78
2022/07/02 06:08:06;;;;;;;0.40;0.40;;;;;;;14.92;99.51;100784.53;5011135;28;20029;-79
2022/07/02 06:10:31;;;;;;;0.50;0.50;;;;;;;15.42;99.58;100784.22;4998605;28;20103;-78
2022/07/02 06:12:58;;;;;;;0.30;0.30;;;;;;;14.44;100.00;100792.63;5009349;28;20029;-77
2022/07/02 06:15:23;;;;;;;0.30;0.30;;;;;;;13.62;100.00;100792.28;5011546;28;20066;-77
2022/07/02 06:17:51;;;;;;;0.30;0.30;;;;;;;13.11;100.00;100791.59;5006931;28;20033;-78
2022/07/02 06:20:17;;;;;;;0.30;0.30;;;;;;;12.86;100.00;100801.88;4987682;28;20042;-77
2022/07/02 06:22:43;;;;;;;0.30;0.30;;;;;;;12.55;100.00;100794.88;4993473;28;20040;-78
2022/07/02 06:25:09;;;;;;;0.32;0.32;;;;;;;12.19;100.00;100798.31;4983781;28;20045;-78
2022/07/02 06:27:35;;;;;;;0.40;0.40;;;;;;;11.94;100.00;100794.22;4994452;28;20073;-80
2022/07/02 06:30:04;;;;;;;0.30;0.30;;;;;;;11.76;100.00;100794.53;5001794;28;20032;-79
2022/07/02 06:32:30;;;;;;;6.65;0.55;;;;;;;11.66;100.00;100801.00;5015199;28;20376;-76
2022/07/02 06:34:56;;;;;;;0.40;0.40;;;;;;;11.58;100.00;100789.47;5012675;28;20037;-76
2022/07/02 06:37:22;;;;;;;0.40;0.40;;;;;;;11.53;100.00;100792.69;4996110;28;20038;-77
2022/07/02 06:39:49;;;;;;;0.50;0.50;;;;;;;12.04;100.00;100800.16;5012742;28;20029;-78
2022/07/02 06:42:20;;;;;;;0.43;0.43;;;;;;;14.17;100.00;100787.09;5001919;28;20080;-78
2022/07/02 06:44:47;;;;;;;0.50;0.50;;;;;;;15.65;98.57;100792.78;5008203;28;20028;-76
2022/07/02 06:47:40;;;;;;;0.50;0.50;;;;;;;16.23;92.78;100794.84;5004118;28;20079;-75
2022/07/02 06:50:06;;;;;;;0.40;0.40;;;;;;;15.83;94.09;100787.59;5023458;28;20065;-78
2022/07/02 06:52:32;;;;;;;0.40;0.40;;;;;;;15.89;96.23;100796.78;5018507;28;20025;-79
2022/07/02 06:55:27;;;;;;;0.35;0.35;;;;;;;14.65;100.00;100799.84;5023086;28;20029;-80
2022/07/02 06:58:18;;;;;;;0.32;0.32;;;;;;;13.83;100.00;100798.69;4996301;28;20034;-79
2022/07/02 07:01:18;;;;;;;0.32;0.32;;;;;;;13.52;100.00;100805.31;5012873;28;20475;-78
2022/07/02 07:04:08;;;;;;;0.40;0.40;;;;;;;13.29;100.00;100801.97;5018470;28;20373;-77
2022/07/02 07:06:55;;;;;;;0.30;0.30;;;;;;;13.18;100.00;100812.22;5010721;28;20046;-80
2022/07/02 07:09:41;;;;;;;0.30;0.30;;;;;;;12.82;100.00;100800.59;5025775;28;20026;-77
2022/07/02 07:12:16;;;;;;;0.30;0.30;;;;;;;12.76;100.00;100799.50;5023014;28;20125;-76
2022/07/02 07:15:09;;;;;;;0.40;0.40;;;;;;;13.06;100.00;100800.25;5008607;28;20029;-78
2022/07/02 07:18:06;;;;;;;0.30;0.30;;;;;;;13.18;100.00;100809.53;4999628;28;20046;-77
2022/07/02 07:20:32;;;;;;;0.50;0.50;;;;;;;14.10;100.00;100821.34;5023534;28;20075;-78
2022/07/02 07:22:59;;;;;;;0.40;0.40;;;;;;;15.05;100.00;100822.47;5006150;28;20075;-77
2022/07/02 07:25:26;;;;;;;0.40;0.40;;;;;;;15.04;100.00;100809.16;5021544;28;20540;-78
2022/07/02 07:27:51;;;;;;;0.30;0.30;;;;;;;14.51;100.00;100816.00;5020611;28;20148;-77
2022/07/02 07:30:17;;;;;;;0.32;0.32;;;;;;;14.05;100.00;100816.56;5007351;28;20120;-77
2022/07/02 07:32:43;;;;;;;0.40;0.40;;;;;;;13.90;100.00;100823.91;5016383;28;20061;-79
2022/07/02 07:35:09;;;;;;;0.30;0.30;;;;;;;13.82;100.00;100821.38;5002515;28;20405;-77
2022/07/02 07:37:36;;;;;;;0.57;0.57;;;;;;;14.31;100.00;100825.84;5013051;28;20048;-78
2022/07/02 07:40:07;;;;;;;0.40;0.40;;;;;;;14.45;100.00;100822.22;5016184;28;20501;-77
2022/07/02 07:42:33;;;;;;;0.82;0.82;;;;;;;14.01;100.00;100830.66;5017088;28;20033;-77
2022/07/02 07:44:59;;;;;;;0.40;0.40;;;;;;;13.72;100.00;100824.41;4989756;28;20041;-76
2022/07/02 07:47:27;;;;;;;0.50;0.50;;;;;;;13.91;100.00;100825.59;4983919;28;20556;-77
2022/07/02 07:49:53;;;;;;;0.50;0.50;;;;;;;15.28;100.00;100829.44;5011705;28;20104;-76
2022/07/02 07:52:18;;;;;;;0.50;0.50;;;;;;;16.33;100.00;100816.94;5010645;28;20469;-75
2022/07/02 07:54:44;;;;;;;0.75;0.75;;;;;;;18.31;90.77;100818.69;5009729;28;20033;-76
2022/07/02 07:57:10;;;;;;;0.93;0.73;;;;;;;17.43;94.86;100819.59;4994763;28;20044;-80
2022/07/02 07:59:40;;;;;;;0.90;0.90;;;;;;;16.98;98.34;100822.38;4988102;28;20491;-76
2022/07/02 08:02:06;;;;;;;0.57;0.57;;;;;;;17.38;97.64;100816.69;5018009;28;20386;-77
2022/07/02 08:04:32;;;;;;;0.70;0.70;;;;;;;17.33;98.17;100819.25;4997671;28;20033;-77
2022/07/02 08:06:57;;;;;;;4.97;1.20;;;;;;;15.99;100.00;100828.91;5022578;28;20100;-76
2022/07/02 08:09:23;;;;;;;3.13;1.20;;;;;;;14.88;100.00;100815.78;4987590;28;20126;-76
2022/07/02 08:11:51;;;;;;;0.95;0.85;;;;;;;14.53;100.00;100834.78;4977435;28;20181;-76
2022/07/02 08:14:17;;;;;;;6.22;1.00;;;;;;;14.30;100.00;100832.31;4996639;28;20041;-77
2022/07/02 08:16:43;;;;;;;0.75;0.60;;;;;;;14.37;100.00;100835.03;4997155;28;20147;-76
2022/07/02 08:19:09;;;;;;;1.92;1.77;;;;;;;17.75;95.38;100827.72;4985964;28;20026;-78
2022/07/02 08:21:34;;;;;;;2.00;1.15;;;;;;;20.70;78.82;100829.81;5001926;28;20049;-75
2022/07/02 08:24:00;;;;;;;6.72;1.95;;;;;;;22.06;73.97;100834.47;5003011;28;20045;-75
2022/07/02 08:26:25;;;;;;;3.20;1.58;;;;;;;23.86;67.08;100835.56;5014850;28;20045;-76
2022/07/02 08:28:51;;;;;;;5.90;1.95;;;;;;;23.80;68.34;100834.72;5018760;28;20459;-78
2022/07/02 08:31:17;;;;;;;5.65;1.80;;;;;;;24.24;65.78;100831.75;5025000;28;20082;-79
2022/07/02 08:33:43;;;;;;;7.63;2.58;;;;;;;24.57;66.50;100836.06;5020682;28;20041;-77
2022/07/02 08:36:09;;;;;;;4.25;1.88;;;;;;;26.07;61.39;100838.88;5007833;28;20045;-75
2022/07/02 08:38:35;;;;;;;6.22;1.70;;;;;;;23.89;65.86;100824.06;4985949;28;20033;-78
2022/07/02 08:41:01;;;;;;;4.57;2.08;;;;;;;21.32;75.99;100834.56;5018528;28;20360;-77
2022/07/02 08:43:28;;;;;;;4.80;1.42;;;;;;;19.91;83.62;100841.91;4998316;28;20117;-76
2022/07/02 08:45:55;;;;;;;6.60;1.85;;;;;;;19.46;85.83;100838.84;5021006;28;20099;-77
2022/07/02 08:48:20;;;;;;;5.93;2.05;;;;;;;18.41;89.32;100848.09;5029230;28;20045;-77
2022/07/02 08:50:48;;;;;;;3.28;1.88;;;;;;;16.86;92.47;100840.41;5010912;28;20037;-79
2022/07/02 08:53:16;;;;;;;2.50;1.20;;;;;;;15.74;96.81;100848.47;5010822;28;20040;-77
2022/07/02 08:55:43;;;;;;;3.67;1.20;;;;;;;15.45;98.95;100843.41;5054655;28;20128;-75
2022/07/02 08:58:10;;;;;;;5.07;2.30;;;;;;;16.54;97.16;100851.13;5027165;28;20037;-77
2022/07/02 09:00:38;;;;;;;0.77;0.77;;;;;;;17.83;92.51;100851.97;5012825;28;20037;-76
2022/07/02 09:03:04;;;;;;;0.40;0.40;;;;;;;17.67;92.36;100852.47;5038763;28;20076;-76
2022/07/02 09:05:30;;;;;;;0.43;0.43;;;;;;;16.96;95.17;100850.78;5010548;28;20065;-79
2022/07/02 09:07:56;;;;;;;0.47;0.47;;;;;;;16.38;97.42;100851.56;5011280;28;20037;-76
2022/07/02 09:10:24;;;;;;;0.50;0.50;;;;;;;16.82;96.46;100855.47;5012063;28;20045;-76
2022/07/02 09:12:51;;;;;;;0.50;0.50;;;;;;;17.32;93.27;100847.47;4991992;28;20061;-79
2022/07/02 09:15:17;;;;;;;0.60;0.60;;;;;;;17.91;91.66;100846.25;4991095;28;20161;-79
2022/07/02 09:17:43;;;;;;;0.70;0.70;;;;;;;19.95;84.20;100853.19;4998849;28;20084;-79
2022/07/02 09:20:10;;;;;;;0.40;0.40;;;;;;;20.57;78.83;100839.91;5010006;28;20415;-79
2022/07/02 09:22:39;;;;;;;0.40;0.40;;;;;;;19.28;85.92;100848.72;5028095;28;20132;-80
2022/07/02 09:25:16;;;;;;;0.60;0.60;;;;;;;19.41;83.69;100855.88;4999011;28;20045;-79
2022/07/02 09:27:44;;;;;;;0.70;0.70;;;;;;;21.24;78.88;100854.94;5031990;28;20047;-79
2022/07/02 09:30:11;;;;;;;0.80;0.80;;;;;;;23.94;67.63;100843.31;4996023;28;20530;-79
2022/07/02 09:32:39;;;;;;;0.50;0.50;;;;;;;23.84;68.23;100855.06;5022378;28;20479;-80
2022/07/02 09:35:05;;;;;;;0.50;0.50;;;;;;;23.04;69.97;100856.69;5027897;28;20425;-80
2022/07/02 09:37:30;;;;;;;0.40;0.40;;;;;;;20.51;72.90;100856.38;5011456;28;20081;-75
2022/07/02 09:40:00;;;;;;;0.63;0.63;;;;;;;17.11;83.12;100860.34;5014674;28;20032;-77
2022/07/02 09:42:33;;;;;;;0.30;0.30;;;;;;;15.34;94.39;100853.81;5030489;28;20124;-76
2022/07/02 09:45:00;;;;;;;0.50;0.50;;;;;;;15.02;100.00;100868.09;5027622;28;20072;-76
2022/07/02 09:47:29;;;;;;;0.50;0.50;;;;;;;15.61;100.00;100859.28;5023763;28;20029;-77
2022/07/02 09:49:55;;;;;;;0.55;0.55;;;;;;;17.25;96.32;100852.97;5011063;28;20121;-76
2022/07/02 09:52:20;;;;;;;0.50;0.50;;;;;;;18.50;91.06;100856.78;4998405;28;20035;-77
2022/07/02 09:54:46;;;;;;;0.50;0.50;;;;;;;19.75;83.51;100851.63;5009822;28;20080;-75
2022/07/02 09:57:12;;;;;;;0.60;0.60;;;;;;;19.34;85.52;100852.41;4988091;28;20034;-75
2022/07/02 09:59:39;;;;;;;0.70;0.70;;;;;;;22.24;75.55;100866.28;5030063;28;20481;-77
2022/07/02 10:02:06;;;;;;;1.25;0.90;;;;;;;23.65;69.13;100868.31;5015945;28;20606;-78
2022/07/02 10:04:32;;;;;;;0.70;0.70;;;;;;;24.11;67.59;100852.25;5008832;28;20044;-76
2022/07/02 10:06:59;;;;;;;0.75;0.75;;;;;;;25.13;64.57;100865.72;5026565;28;20498;-77
2022/07/02 10:09:28;;;;;;;0.60;0.60;;;;;;;26.60;62.37;100855.06;5027839;28;20709;-75
2022/07/02 10:11:54;;;;;;;0.40;0.40;;;;;;;24.23;65.17;100859.47;5014070;28;20044;-77
2022/07/02 10:14:21;;;;;;;0.40;0.40;;;;;;;21.84;73.49;100856.31;5011075;28;20042;-76
2022/07/02 10:16:50;;;;;;;0.40;0.40;;;;;;;20.45;78.19;100860.09;5023947;28;20046;-76
2022/07/02 10:19:17;;;;;;;0.60;0.60;;;;;;;21.93;74.10;100865.75;5005596;28;20494;-75
2022/07/02 10:21:43;;;;;;;0.40;0.40;;;;;;;22.05;73.47;100868.44;5015042;28;20029;-76
2022/07/02 10:24:10;;;;;;;0.50;0.50;;;;;;;21.09;73.71;100863.69;5007095;28;20041;-76
2022/07/02 10:26:37;;;;;;;0.43;0.43;;;;;;;19.79;76.92;100873.81;5025794;28;20056;-76
2022/07/02 10:29:03;;;;;;;0.40;0.40;;;;;;;19.00;80.46;100873.84;4995517;28;20044;-76
2022/07/02 10:31:36;;;;;;;0.40;0.40;;;;;;;18.79;84.97;100872.44;5020598;28;20038;-75
2022/07/02 10:34:20;;;;;;;0.40;0.40;;;;;;;18.83;84.57;100878.25;4994803;28;20087;-76
2022/07/02 10:36:46;;;;;;;0.80;0.80;;;;;;;19.02;84.82;100876.34;5019231;28;20037;-75
2022/07/02 10:39:16;;;;;;;0.88;0.60;;;;;;;19.52;81.38;100874.19;5013251;28;20038;-75
2022/07/02 10:41:41;;;;;;;1.25;0.70;;;;;;;19.82;80.20;100880.69;5011432;28;20029;-76
2022/07/02 10:44:09;;;;;;;1.85;0.70;;;;;;;20.26;77.15;100867.56;5023334;28;20104;-76
2022/07/02 10:46:36;;;;;;;1.10;0.85;;;;;;;20.97;74.14;100874.63;5026457;28;20076;-77
2022/07/02 10:49:03;;;;;;;4.68;1.15;;;;;;;22.87;67.22;100880.59;5010397;28;20103;-76
2022/07/02 10:51:32;;;;;;;0.90;0.85;;;;;;;24.91;61.05;100876.91;5028380;28;20034;-77
2022/07/02 10:53:59;;;;;;;1.63;0.70;;;;;;;23.79;64.31;100882.47;5008212;28;20037;-76
2022/07/02 10:56:26;;;;;;;1.20;0.70;;;;;;;21.90;69.65;100878.03;5010344;28;20061;-77
2022/07/02 10:58:52;;;;;;;1.77;0.70;;;;;;;20.80;71.76;100876.47;4996987;28;20037;-77
2022/07/02 11:01:22;;;;;;;1.05;0.70;;;;;;;22.12;69.08;100880.03;5011716;28;20522;-76
2022/07/02 11:04:02;;;;;;;1.38;0.60;;;;;;;22.15;67.25;100877.63;5008879;28;20479;-76
2022/07/02 11:06:31;;;;;;;1.05;0.95;;;;;;;20.80;70.58;100877.31;5022362;28;20030;-76
2022/07/02 11:09:00;;;;;;;2.70;1.30;;;;;;;24.26;59.52;100884.47;4998005;28;20067;-76
2022/07/02 11:11:32;;;;;;;2.10;1.10;;;;;;;26.21;55.35;100886.00;5003821;28;20069;-77
2022/07/02 11:13:58;;;;;;;1.77;1.10;;;;;;;27.69;52.53;100881.03;5031075;28;20112;-78
2022/07/02 11:16:34;;;;;;;2.28;0.80;;;;;;;25.66;51.24;100904.13;5027053;28;20108;-77
2022/07/02 11:19:00;;;;;;;1.55;1.13;;;;;;;25.48;51.89;100902.72;4994237;28;20042;-77
2022/07/02 11:21:27;;;;;;;1.52;0.70;;;;;;;22.95;56.82;100897.41;5027787;28;20061;-78
2022/07/02 11:23:53;;;;;;;2.65;0.70;;;;;;;21.05;64.20;100901.59;4992772;28;20426;-76
2022/07/02 11:26:26;;;;;;;3.03;0.80;;;;;;;19.99;68.74;100893.44;4993040;28;20487;-76
2022/07/02 11:28:53;;;;;;;1.25;0.60;;;;;;;19.73;71.56;100915.66;4998103;28;20033;-76
2022/07/02 11:31:21;;;;;;;3.42;0.80;;;;;;;19.89;71.91;100923.19;5013278;28;20091;-76